Weather Data

Pearl Creek Farm: 8878 N Farm Road 75, Walnut Grove MO 65770

<== Previous Day (Saturday 05 Jan 2013) | Next Day (Monday 07 Jan 2013) ==>

Summary Precipitation Data For Sunday 06 January 2013

ElementValueUnits
Precipitation0"
NotesHeavy frost this morning. No snow left as it actually got into the 40s yesterday and must have melted off. None of the predicted (only 30%) precipitation apparently arrived although the radar summary shows we got some.
SourcePearl Creek Farm

Summary Temperature Data For Sunday 06 January 2013

ElementValueUnits
High Temperature40 oF
Low Temperature21 oF
Average Temperature30 oF
High Humidity89 %
Low Humidity58 %
Average Humidity79 %
SourcePearl Creek Farm

Detail Temperature Data For Sunday 06 January 2013

Date / TimeTemp (F)RH (%)Dew Pt (F)Report Date / TimeSource
2013-01-06 00:00:00 31 87 27.6 2013-01-27 10:51:56 Pearl Creek Farm
2013-01-06 00:30:00 30 88 26.8 2013-01-27 10:51:56 Pearl Creek Farm
2013-01-06 01:00:00 30 88 26.8 2013-01-27 10:51:56 Pearl Creek Farm
2013-01-06 01:30:00 29 88 25.9 2013-01-27 10:51:56 Pearl Creek Farm
2013-01-06 02:00:00 30 89 27.2 2013-01-27 10:51:56 Pearl Creek Farm
2013-01-06 02:30:00 30 88 26.8 2013-01-27 10:51:56 Pearl Creek Farm
2013-01-06 03:00:00 29 88 25.9 2013-01-27 10:51:56 Pearl Creek Farm
2013-01-06 03:30:00 29 87 25.5 2013-01-27 10:51:56 Pearl Creek Farm
2013-01-06 04:00:00 29 87 25.5 2013-01-27 10:51:56 Pearl Creek Farm
2013-01-06 04:30:00 27 87 23.5 2013-01-27 10:51:56 Pearl Creek Farm
2013-01-06 05:00:00 27 87 23.7 2013-01-27 10:51:56 Pearl Creek Farm
2013-01-06 05:30:00 27 87 23.5 2013-01-27 10:51:56 Pearl Creek Farm
2013-01-06 06:00:00 27 86 23.4 2013-01-27 10:51:56 Pearl Creek Farm
2013-01-06 06:30:00 25 86 21.3 2013-01-27 10:51:56 Pearl Creek Farm
2013-01-06 07:00:00 25 86 21.4 2013-01-27 10:51:56 Pearl Creek Farm
2013-01-06 07:30:00 25 87 21.7 2013-01-27 10:51:56 Pearl Creek Farm
2013-01-06 08:00:00 25 86 21.4 2013-01-27 10:51:56 Pearl Creek Farm
2013-01-06 08:30:00 26 88 22.8 2013-01-27 10:51:56 Pearl Creek Farm
2013-01-06 09:00:00 28 86 24.4 2013-01-27 10:51:56 Pearl Creek Farm
2013-01-06 09:30:00 29 85 24.9 2013-01-27 10:51:56 Pearl Creek Farm
2013-01-06 10:00:00 30 83 25.3 2013-01-27 10:51:56 Pearl Creek Farm
2013-01-06 10:30:00 32 82 27.0 2013-01-27 10:51:56 Pearl Creek Farm
2013-01-06 11:00:00 33 78 26.9 2013-01-27 10:51:56 Pearl Creek Farm
2013-01-06 11:30:00 34 77 27.6 2013-01-27 10:51:56 Pearl Creek Farm
2013-01-06 12:00:00 35 74 27.4 2013-01-27 10:51:56 Pearl Creek Farm
2013-01-06 12:30:00 36 71 27.4 2013-01-27 10:51:56 Pearl Creek Farm
2013-01-06 13:00:00 37 69 27.8 2013-01-27 10:51:56 Pearl Creek Farm
2013-01-06 13:30:00 37 67 27.1 2013-01-27 10:51:56 Pearl Creek Farm
2013-01-06 14:00:00 39 65 28.1 2013-01-27 10:51:56 Pearl Creek Farm
2013-01-06 14:30:00 39 63 27.3 2013-01-27 10:51:56 Pearl Creek Farm
2013-01-06 15:00:00 40 59 26.9 2013-01-27 10:51:56 Pearl Creek Farm
2013-01-06 15:30:00 40 58 26.5 2013-01-27 10:51:56 Pearl Creek Farm
2013-01-06 16:00:00 40 59 26.7 2013-01-27 10:51:56 Pearl Creek Farm
2013-01-06 16:30:00 39 61 26.5 2013-01-27 10:51:56 Pearl Creek Farm
2013-01-06 17:00:00 37 65 26.2 2013-01-27 10:51:56 Pearl Creek Farm
2013-01-06 17:30:00 33 70 24.3 2013-01-27 10:51:56 Pearl Creek Farm
2013-01-06 18:00:00 30 75 23.1 2013-01-27 10:51:56 Pearl Creek Farm
2013-01-06 18:30:00 28 76 21.4 2013-01-27 10:51:56 Pearl Creek Farm
2013-01-06 19:00:00 26 77 19.8 2013-01-27 10:51:56 Pearl Creek Farm
2013-01-06 19:30:00 25 80 19.7 2013-01-27 10:51:56 Pearl Creek Farm
2013-01-06 20:00:00 25 80 19.7 2013-01-27 10:51:56 Pearl Creek Farm
2013-01-06 20:30:00 25 82 20.3 2013-01-27 10:51:56 Pearl Creek Farm
2013-01-06 21:00:00 24 82 19.3 2013-01-27 10:51:56 Pearl Creek Farm
2013-01-06 21:30:00 23 83 18.6 2013-01-27 10:51:56 Pearl Creek Farm
2013-01-06 22:00:00 22 83 17.5 2013-01-27 10:51:56 Pearl Creek Farm
2013-01-06 22:30:00 22 85 18.1 2013-01-27 10:51:56 Pearl Creek Farm
2013-01-06 23:00:00 22 84 17.8 2013-01-27 10:51:56 Pearl Creek Farm
2013-01-06 23:30:00 21 85 17.2 2013-01-27 10:51:56 Pearl Creek Farm

A total of 48 rows are displayed.